Time;durP1;ratioP1;P1;durP2;ratioP2;P2;SDS_P1;SDS_P2;PMS_P1;PMS_P2;Temp;Humidity;BMP_temperature;BMP_pressure;BME280_temperature;BME280_humidity;BME280_pressure;Samples;Min_cycle;Max_cycle;Signal;HPM_P1;HPM_P2
2022/07/24 00:01:52;;;;;;;;;;;;;;;23.88;79.48;96982.86;601545;236;65038;-72
2022/07/24 00:04:19;;;;;;;;;;;;;;;23.90;79.45;96986.05;601550;236;66134;-72
2022/07/24 00:06:47;;;;;;;;;;;;;;;23.88;79.50;96989.02;601525;236;68912;-72
2022/07/24 00:09:14;;;;;;;;;;;;;;;23.87;79.52;96979.38;601506;236;65151;-72
2022/07/24 00:11:42;;;;;;;;;;;;;;;23.88;79.55;96977.48;601524;236;68975;-72
2022/07/24 00:14:10;;;;;;;;;;;;;;;23.88;79.51;96972.91;601528;236;66448;-72
2022/07/24 00:16:37;;;;;;;;;;;;;;;23.89;79.49;96973.70;601565;236;62732;-73
2022/07/24 00:19:05;;;;;;;;;;;;;;;23.89;79.58;96969.13;601510;236;66412;-72
2022/07/24 00:21:32;;;;;;;;;;;;;;;23.88;79.52;96972.12;601503;236;66472;-73
2022/07/24 00:24:00;;;;;;;;;;;;;;;23.88;79.58;96972.91;601533;236;62756;-63
2022/07/24 00:26:27;;;;;;;;;;;;;;;23.88;79.60;96972.91;601528;236;68933;-63
2022/07/24 00:28:55;;;;;;;;;;;;;;;23.89;79.56;96968.34;601563;236;68504;-63
2022/07/24 00:31:23;;;;;;;;;;;;;;;23.88;79.47;96972.91;601483;236;64913;-64
2022/07/24 00:33:50;;;;;;;;;;;;;;;23.88;79.48;96966.75;601514;236;66320;-63
2022/07/24 00:36:18;;;;;;;;;;;;;;;23.90;79.39;96964.58;601512;236;66426;-63
2022/07/24 00:38:45;;;;;;;;;;;;;;;23.88;79.43;96961.38;601515;236;62763;-63
2022/07/24 00:41:13;;;;;;;;;;;;;;;23.88;79.46;96962.17;601592;236;66443;-63
2022/07/24 00:44:00;;;;;;;;;;;;;;;23.89;79.53;96962.97;601494;236;66528;-64
2022/07/24 00:46:28;;;;;;;;;;;;;;;23.89;79.53;96965.66;601512;236;62986;-64
2022/07/24 00:48:55;;;;;;;;;;;;;;;23.90;79.50;96961.90;601511;236;66399;-64
2022/07/24 00:51:24;;;;;;;;;;;;;;;23.88;79.45;96958.70;601515;236;66215;-73
2022/07/24 00:53:51;;;;;;;;;;;;;;;23.88;79.42;96958.70;601521;236;65860;-73
2022/07/24 00:56:19;;;;;;;;;;;;;;;23.88;79.48;96950.65;601499;236;68642;-73
2022/07/24 00:58:48;;;;;;;;;;;;;;;23.88;79.42;96953.33;601489;236;68881;-73
2022/07/24 01:01:15;;;;;;;;;;;;;;;23.88;79.51;96956.02;601504;236;64892;-73
2022/07/24 01:03:43;;;;;;;;;;;;;;;23.88;79.53;96950.65;601532;236;68843;-73
2022/07/24 01:06:10;;;;;;;;;;;;;;;23.88;79.58;96956.80;601504;236;68511;-73
2022/07/24 01:08:38;;;;;;;;;;;;;;;23.88;79.62;96953.33;601565;236;64959;-73
2022/07/24 01:11:06;;;;;;;;;;;;;;;23.89;79.60;96957.59;601490;236;68641;-73
2022/07/24 01:13:36;;;;;;;;;;;;;;;23.88;79.53;96950.65;601397;235;46017;-74
2022/07/24 01:16:04;;;;;;;;;;;;;;;23.88;79.54;96951.44;601535;236;62676;-65
2022/07/24 01:18:31;;;;;;;;;;;;;;;23.88;79.57;96946.08;601501;236;68528;-64
2022/07/24 01:20:59;;;;;;;;;;;;;;;23.89;79.58;96944.18;601506;236;68542;-65
2022/07/24 01:23:26;;;;;;;;;;;;;;;23.88;79.62;96946.08;601508;236;64847;-65
2022/07/24 01:25:54;;;;;;;;;;;;;;;23.87;79.59;96944.48;601515;236;68913;-65
2022/07/24 01:28:21;;;;;;;;;;;;;;;23.88;79.54;96940.70;601511;236;68487;-64
2022/07/24 01:30:49;;;;;;;;;;;;;;;23.88;79.58;96938.02;601512;236;64897;-64
2022/07/24 01:33:17;;;;;;;;;;;;;;;23.89;79.59;96942.29;601490;236;68797;-64
2022/07/24 01:35:44;;;;;;;;;;;;;;;23.90;79.62;96945.80;601557;236;68659;-64
2022/07/24 01:38:15;;;;;;;;;;;;;;;23.89;79.62;96936.92;601478;236;62777;-65
2022/07/24 01:40:43;;;;;;;;;;;;;;;23.90;79.65;96940.42;601566;236;68643;-65
2022/07/24 01:43:10;;;;;;;;;;;;;;;23.88;79.63;96932.66;601548;236;68577;-65
2022/07/24 01:45:38;;;;;;;;;;;;;;;23.90;79.65;96927.01;601522;236;66060;-65
2022/07/24 01:48:06;;;;;;;;;;;;;;;23.90;79.63;96937.74;601585;236;68778;-74
2022/07/24 01:50:34;;;;;;;;;;;;;;;23.88;79.58;96931.86;601521;236;68779;-74
2022/07/24 01:53:02;;;;;;;;;;;;;;;23.89;79.62;96936.13;601541;236;63161;-74
2022/07/24 01:55:30;;;;;;;;;;;;;;;23.90;79.62;96935.06;601133;236;66526;-74
2022/07/24 01:57:58;;;;;;;;;;;;;;;23.89;79.62;96923.50;599768;236;67752;-74
2022/07/24 02:00:25;;;;;;;;;;;;;;;23.88;79.66;96921.92;599849;236;62992;-74
2022/07/24 02:02:53;;;;;;;;;;;;;;;23.88;79.67;96929.17;599796;236;66407;-74
2022/07/24 02:05:20;;;;;;;;;;;;;;;23.88;79.67;96926.49;599793;236;66338;-74
2022/07/24 02:07:49;;;;;;;;;;;;;;;23.90;79.62;96924.32;599789;236;62744;-74
2022/07/24 02:10:16;;;;;;;;;;;;;;;23.88;79.65;96926.49;599634;236;68699;-74
2022/07/24 02:12:44;;;;;;;;;;;;;;;23.88;79.61;96921.92;599780;236;66656;-74
2022/07/24 02:15:11;;;;;;;;;;;;;;;23.90;79.69;96924.32;599822;236;62749;-74
2022/07/24 02:17:39;;;;;;;;;;;;;;;23.89;79.74;96920.81;599773;236;69020;-74
2022/07/24 02:20:07;;;;;;;;;;;;;;;23.88;79.71;96913.08;599800;236;66450;-74
2022/07/24 02:22:35;;;;;;;;;;;;;;;23.88;79.71;96919.23;599774;236;62997;-74
2022/07/24 02:25:03;;;;;;;;;;;;;;;23.88;79.70;96913.87;599815;236;66296;-74
2022/07/24 02:27:30;;;;;;;;;;;;;;;23.88;79.71;96916.55;599834;236;68478;-74
2022/07/24 02:29:58;;;;;;;;;;;;;;;23.90;79.67;96916.27;599827;236;62719;-74
2022/07/24 02:32:25;;;;;;;;;;;;;;;23.88;79.73;96913.08;599746;236;66089;-74
2022/07/24 02:34:53;;;;;;;;;;;;;;;23.90;79.74;96918.95;599779;236;66474;-74
2022/07/24 02:37:20;;;;;;;;;;;;;;;23.90;79.76;96924.32;599757;236;62769;-74
2022/07/24 02:39:47;;;;;;;;;;;;;;;23.89;79.74;96925.39;599843;236;66630;-74
2022/07/24 02:42:15;;;;;;;;;;;;;;;23.89;79.78;96920.02;599796;236;66343;-74
2022/07/24 02:44:43;;;;;;;;;;;;;;;23.88;79.76;96918.44;599764;236;62658;-65
2022/07/24 02:47:10;;;;;;;;;;;;;;;23.89;79.74;96920.81;599769;236;68245;-65
2022/07/24 02:49:38;;;;;;;;;;;;;;;23.88;79.76;96916.55;599772;236;66471;-65
2022/07/24 02:52:05;;;;;;;;;;;;;;;23.88;79.81;96913.87;599845;236;62620;-65
2022/07/24 02:54:33;;;;;;;;;;;;;;;23.88;79.71;96919.23;599813;236;66037;-65
2022/07/24 02:57:00;;;;;;;;;;;;;;;23.89;79.76;96920.81;599779;236;68515;-65
2022/07/24 02:59:28;;;;;;;;;;;;;;;23.89;79.79;96910.08;599796;236;62764;-65
2022/07/24 03:01:55;;;;;;;;;;;;;;;23.88;79.85;96907.70;599775;236;68344;-65
2022/07/24 03:04:23;;;;;;;;;;;;;;;23.89;79.88;96906.61;599873;236;68333;-65
2022/07/24 03:06:51;;;;;;;;;;;;;;;23.88;79.83;96907.70;599801;236;64956;-65
2022/07/24 03:09:19;;;;;;;;;;;;;;;23.89;79.87;96911.97;599781;236;68432;-65
2022/07/24 03:11:46;;;;;;;;;;;;;;;23.88;79.87;96900.45;599797;236;66234;-65
2022/07/24 03:14:14;;;;;;;;;;;;;;;23.88;79.87;96908.50;599795;236;65115;-65
2022/07/24 03:16:41;;;;;;;;;;;;;;;23.88;79.88;96911.19;599793;236;68480;-65
2022/07/24 03:19:09;;;;;;;;;;;;;;;23.88;79.89;96911.19;599840;236;68386;-65
2022/07/24 03:21:36;;;;;;;;;;;;;;;23.87;79.92;96898.05;599765;236;65006;-65
2022/07/24 03:24:04;;;;;;;;;;;;;;;23.88;79.86;96899.66;599799;236;66324;-65
2022/07/24 03:26:31;;;;;;;;;;;;;;;23.88;79.83;96902.34;599718;236;69063;-65
2022/07/24 03:28:59;;;;;;;;;;;;;;;23.88;79.85;96896.97;599788;236;64944;-65
2022/07/24 03:31:27;;;;;;;;;;;;;;;23.88;79.92;96897.77;599821;236;66408;-65
2022/07/24 03:33:54;;;;;;;;;;;;;;;23.88;79.99;96902.34;599756;236;66330;-65
2022/07/24 03:36:22;;;;;;;;;;;;;;;23.88;79.99;96902.34;599799;236;62726;-65
2022/07/24 03:38:49;;;;;;;;;;;;;;;23.88;79.95;96896.97;599764;236;68775;-65
2022/07/24 03:41:17;;;;;;;;;;;;;;;23.88;79.99;96899.66;599782;236;68697;-65
2022/07/24 03:43:44;;;;;;;;;;;;;;;23.88;79.97;96892.39;599853;236;65039;-65
2022/07/24 03:46:12;;;;;;;;;;;;;;;23.88;79.98;96896.97;599786;236;68354;-65
2022/07/24 03:48:39;;;;;;;;;;;;;;;23.88;80.03;96899.66;599795;236;68544;-65
2022/07/24 03:51:07;;;;;;;;;;;;;;;23.88;79.95;96896.97;599770;236;65879;-65
2022/07/24 03:53:34;;;;;;;;;;;;;;;23.87;80.08;96901.55;599751;236;66691;-65
2022/07/24 03:56:04;;;;;;;;;;;;;;;23.88;80.02;96895.08;599792;236;68848;-65
2022/07/24 03:58:31;;;;;;;;;;;;;;;23.88;80.12;96903.13;599610;236;64939;-65
2022/07/24 04:00:59;;;;;;;;;;;;;;;23.88;80.06;96908.50;599781;236;68609;-65
2022/07/24 04:03:26;;;;;;;;;;;;;;;23.87;80.07;96901.55;599782;236;68685;-65
2022/07/24 04:05:54;;;;;;;;;;;;;;;23.88;80.05;96905.02;599777;236;64974;-65
2022/07/24 04:08:22;;;;;;;;;;;;;;;23.88;80.14;96905.02;599812;236;66408;-65
2022/07/24 04:10:49;;;;;;;;;;;;;;;23.87;80.07;96901.55;599821;236;66465;-65
2022/07/24 04:13:17;;;;;;;;;;;;;;;23.87;80.10;96901.55;599783;236;62786;-65
2022/07/24 04:15:44;;;;;;;;;;;;;;;23.88;80.09;96903.13;599770;236;66405;-65
2022/07/24 04:18:12;;;;;;;;;;;;;;;23.88;80.08;96896.97;599779;236;68607;-65
2022/07/24 04:20:39;;;;;;;;;;;;;;;23.87;80.16;96895.36;599747;236;62769;-65
2022/07/24 04:23:07;;;;;;;;;;;;;;;23.88;80.25;96894.29;599839;236;66465;-65
2022/07/24 04:25:34;;;;;;;;;;;;;;;23.88;80.28;96896.97;599786;236;66429;-65
2022/07/24 04:28:02;;;;;;;;;;;;;;;23.88;80.30;96894.29;599769;236;62699;-65
2022/07/24 04:30:30;;;;;;;;;;;;;;;23.87;80.29;96890.81;599787;236;66446;-65
2022/07/24 04:32:57;;;;;;;;;;;;;;;23.87;80.36;96898.86;599786;236;68327;-65
2022/07/24 04:35:25;;;;;;;;;;;;;;;23.87;80.36;96893.50;599805;236;65016;-65
2022/07/24 04:37:53;;;;;;;;;;;;;;;23.88;80.36;96892.39;599782;236;68827;-65
2022/07/24 04:40:20;;;;;;;;;;;;;;;23.88;80.37;96894.29;599742;236;68782;-65
2022/07/24 04:42:48;;;;;;;;;;;;;;;23.88;80.30;96896.97;599775;236;64964;-65
2022/07/24 04:45:15;;;;;;;;;;;;;;;23.87;80.39;96893.50;599780;236;68664;-65
2022/07/24 04:47:43;;;;;;;;;;;;;;;23.87;80.39;96900.73;599767;236;68524;-65
2022/07/24 04:50:11;;;;;;;;;;;;;;;23.87;80.33;96896.18;599795;236;64892;-65
2022/07/24 04:52:38;;;;;;;;;;;;;;;23.88;80.32;96902.34;599764;236;66235;-65
2022/07/24 04:55:06;;;;;;;;;;;;;;;23.88;80.32;96891.61;599708;236;68588;-65
2022/07/24 04:57:34;;;;;;;;;;;;;;;23.87;80.33;96901.55;599794;236;65084;-74
2022/07/24 05:00:02;;;;;;;;;;;;;;;23.87;80.32;96895.36;599798;236;68618;-74
2022/07/24 05:02:30;;;;;;;;;;;;;;;23.87;80.37;96895.36;599780;236;68541;-74
2022/07/24 05:04:57;;;;;;;;;;;;;;;23.87;80.37;96895.36;599760;236;65028;-74
2022/07/24 05:07:25;;;;;;;;;;;;;;;23.87;80.30;96895.36;599760;236;68848;-74
2022/07/24 05:09:52;;;;;;;;;;;;;;;23.88;80.31;96896.97;599962;236;66361;-74
2022/07/24 05:12:20;;;;;;;;;;;;;;;23.87;80.41;96900.73;599784;236;64936;-74
2022/07/24 05:14:47;;;;;;;;;;;;;;;23.87;80.34;96898.05;599732;236;68515;-74
2022/07/24 05:17:15;;;;;;;;;;;;;;;23.87;80.34;96889.99;599774;236;68531;-74
2022/07/24 05:19:42;;;;;;;;;;;;;;;23.88;80.42;96894.29;599817;236;62814;-74
2022/07/24 05:22:10;;;;;;;;;;;;;;;23.87;80.39;96898.86;599355;236;66450;-75
2022/07/24 05:24:37;;;;;;;;;;;;;;;23.87;80.29;96895.36;599669;236;66427;-65
2022/07/24 05:27:05;;;;;;;;;;;;;;;23.87;80.33;96889.99;599809;236;63641;-65
2022/07/24 05:29:32;;;;;;;;;;;;;;;23.86;80.34;96886.52;599701;236;68498;-65
2022/07/24 05:32:00;;;;;;;;;;;;;;;23.87;80.27;96884.63;599791;236;66439;-65
2022/07/24 05:34:27;;;;;;;;;;;;;;;23.88;80.37;96888.92;599790;236;62668;-65
2022/07/24 05:36:55;;;;;;;;;;;;;;;23.87;80.39;96889.99;599844;236;66464;-74
2022/07/24 05:39:23;;;;;;;;;;;;;;;23.87;80.33;96887.31;599809;236;68577;-74
2022/07/24 05:41:50;;;;;;;;;;;;;;;23.88;80.33;96883.55;599751;236;64889;-74
2022/07/24 05:44:18;;;;;;;;;;;;;;;23.87;80.39;96879.26;599781;236;68764;-75
2022/07/24 05:46:45;;;;;;;;;;;;;;;23.88;80.34;96872.81;599799;236;68350;-74
2022/07/24 05:49:13;;;;;;;;;;;;;;;23.86;80.35;96878.47;599847;236;64823;-74
2022/07/24 05:51:40;;;;;;;;;;;;;;;23.88;80.39;96875.50;599775;236;66329;-74
2022/07/24 05:54:08;;;;;;;;;;;;;;;23.88;80.37;96878.98;599744;236;69205;-74
2022/07/24 05:56:35;;;;;;;;;;;;;;;23.87;80.35;96876.57;600934;236;64901;-74
2022/07/24 05:59:03;;;;;;;;;;;;;;;23.87;80.45;96874.71;601551;236;68689;-74
2022/07/24 06:01:32;;;;;;;;;;;;;;;23.87;80.51;96869.34;601581;236;66400;-74
2022/07/24 06:03:59;;;;;;;;;;;;;;;23.87;80.56;96876.57;601542;236;64930;-74
2022/07/24 06:06:27;;;;;;;;;;;;;;;23.87;80.51;96873.89;601530;236;68616;-64
2022/07/24 06:08:54;;;;;;;;;;;;;;;23.87;80.50;96871.20;601487;236;68433;-65
2022/07/24 06:11:22;;;;;;;;;;;;;;;23.87;80.53;96872.03;601559;236;64947;-65
2022/07/24 06:13:50;;;;;;;;;;;;;;;23.86;80.67;96873.09;601595;236;66109;-65
2022/07/24 06:16:17;;;;;;;;;;;;;;;23.86;79.79;96874.99;601564;236;66536;-65
2022/07/24 06:18:45;;;;;;;;;;;;;;;23.86;80.65;96865.05;601520;236;63638;-65
2022/07/24 06:21:12;;;;;;;;;;;;;;;23.87;80.79;96872.03;601556;236;68874;-65
2022/07/24 06:23:40;;;;;;;;;;;;;;;23.88;80.67;96870.13;601493;236;68534;-65
2022/07/24 06:26:07;;;;;;;;;;;;;;;23.87;80.90;96869.34;601527;236;65232;-65
2022/07/24 06:28:35;;;;;;;;;;;;;;;23.88;81.23;96870.13;601588;236;68649;-65
2022/07/24 06:31:02;;;;;;;;;;;;;;;23.87;81.12;96866.66;601518;236;69410;-65
2022/07/24 06:33:30;;;;;;;;;;;;;;;23.88;81.46;96867.45;601538;236;62821;-74
2022/07/24 06:35:57;;;;;;;;;;;;;;;23.89;81.39;96869.03;601518;236;68643;-75
2022/07/24 06:38:25;;;;;;;;;;;;;;;23.89;81.49;96872.51;601545;236;66379;-65
2022/07/24 06:40:52;;;;;;;;;;;;;;;23.90;81.56;96870.64;601584;236;62929;-65
2022/07/24 06:43:20;;;;;;;;;;;;;;;23.90;81.67;96865.28;601503;236;68942;-65
2022/07/24 06:45:48;;;;;;;;;;;;;;;23.88;81.68;96860.19;601535;236;69515;-65
2022/07/24 06:48:15;;;;;;;;;;;;;;;23.90;81.85;96857.23;601536;236;64943;-65
2022/07/24 06:50:42;;;;;;;;;;;;;;;;;;601499;236;68676;-65
2022/07/24 06:53:09;;;;;;;;;;;;;;;23.91;81.84;96853.44;601627;236;68696;-65
2022/07/24 06:55:37;;;;;;;;;;;;;;;23.91;81.82;96858.81;601010;236;62654;-65
2022/07/24 06:58:04;;;;;;;;;;;;;;;23.90;81.76;96851.86;599826;236;68480;-64
2022/07/24 07:00:32;;;;;;;;;;;;;;;23.91;81.87;96848.08;599836;236;65789;-65
2022/07/24 07:02:59;;;;;;;;;;;;;;;23.91;81.87;96854.23;599782;236;64905;-65
2022/07/24 07:05:27;;;;;;;;;;;;;;;23.91;81.87;96853.44;599819;236;68293;-65
2022/07/24 07:07:54;;;;;;;;;;;;;;;23.91;81.84;96845.39;599800;236;66588;-65
2022/07/24 07:10:23;;;;;;;;;;;;;;;23.91;81.87;96842.70;599655;236;65249;-65
2022/07/24 07:12:50;;;;;;;;;;;;;;;23.92;82.01;96838.92;599686;236;68360;-65
2022/07/24 07:15:18;;;;;;;;;;;;;;;23.92;81.84;96844.29;599721;236;66208;-65
2022/07/24 07:17:46;;;;;;;;;;;;;;;23.91;82.04;96835.45;589955;236;68321;-65
2022/07/24 07:20:13;;;;;;;;;;;;;;;23.91;82.04;96843.50;589507;236;67440;-65
2022/07/24 07:22:41;;;;;;;;;;;;;;;23.92;82.08;96844.29;599673;236;67438;-65
2022/07/24 07:25:10;;;;;;;;;;;;;;;23.93;82.09;96841.33;595420;236;62999;-65
2022/07/24 07:27:39;;;;;;;;;;;;;;;23.93;82.12;96835.95;599742;236;68582;-65
2022/07/24 07:30:07;;;;;;;;;;;;;;;23.92;82.19;96839.71;599700;236;68701;-65
2022/07/24 07:32:38;;;;;;;;;;;;;;;23.93;82.27;96840.53;599795;236;62934;-65
2022/07/24 07:35:06;;;;;;;;;;;;;;;23.93;82.27;96837.84;599604;236;66858;-65
2022/07/24 07:37:33;;;;;;;;;;;;;;;23.93;82.31;96845.91;599759;236;68616;-65
2022/07/24 07:40:01;;;;;;;;;;;;;;;23.94;82.25;96847.48;599783;236;62759;-65
2022/07/24 07:42:28;;;;;;;;;;;;;;;23.93;82.25;96843.22;599796;236;66432;-65
2022/07/24 07:44:56;;;;;;;;;;;;;;;23.95;82.33;96840.22;599795;236;68670;-65
2022/07/24 07:47:23;;;;;;;;;;;;;;;23.93;82.22;96848.58;599783;236;62715;-65
2022/07/24 07:49:52;;;;;;;;;;;;;;;23.94;82.22;96842.11;599791;236;66561;-65
2022/07/24 07:52:20;;;;;;;;;;;;;;;23.95;82.22;96848.27;599760;236;68607;-64
2022/07/24 07:54:49;;;;;;;;;;;;;;;23.95;82.25;96842.91;599739;236;64932;-65
2022/07/24 07:57:17;;;;;;;;;;;;;;;23.96;82.11;96842.62;601413;236;66429;-65
2022/07/24 07:59:44;;;;;;;;;;;;;;;23.96;82.18;96841.84;601520;236;66478;-65
2022/07/24 08:02:12;;;;;;;;;;;;;;;23.95;82.14;96838.33;601506;236;65143;-65
2022/07/24 08:04:39;;;;;;;;;;;;;;;23.94;82.15;96847.48;601548;236;68685;-65
2022/07/24 08:07:07;;;;;;;;;;;;;;;23.95;82.08;96843.70;601506;236;68729;-65
2022/07/24 08:09:34;;;;;;;;;;;;;;;23.95;82.09;96843.70;601553;236;64998;-65
2022/07/24 08:12:01;;;;;;;;;;;;;;;23.96;81.99;96852.57;601510;236;69680;-65
2022/07/24 08:14:29;;;;;;;;;;;;;;;23.97;82.13;96852.27;601540;236;68324;-65
2022/07/24 08:16:57;;;;;;;;;;;;;;;23.96;82.06;96850.67;601535;236;65037;-65
2022/07/24 08:19:24;;;;;;;;;;;;;;;23.97;82.00;96859.52;601515;236;68920;-65
2022/07/24 08:21:53;;;;;;;;;;;;;;;23.96;81.99;96869.47;601323;236;47393;-65
2022/07/24 08:24:21;;;;;;;;;;;;;;;23.96;81.99;96861.41;601531;236;64856;-65
2022/07/24 08:26:49;;;;;;;;;;;;;;;23.97;82.06;96856.84;601501;236;66460;-64
2022/07/24 08:29:17;;;;;;;;;;;;;;;23.97;81.97;96859.52;601514;236;68561;-65
2022/07/24 08:31:44;;;;;;;;;;;;;;;23.97;81.89;96859.52;601526;236;64913;-64
2022/07/24 08:34:12;;;;;;;;;;;;;;;23.97;81.93;96857.62;601506;236;68616;-65
2022/07/24 08:36:39;;;;;;;;;;;;;;;23.98;82.04;96856.55;601553;236;68665;-65
2022/07/24 08:39:07;;;;;;;;;;;;;;;23.98;81.90;96856.55;601522;236;65104;-65
2022/07/24 08:41:36;;;;;;;;;;;;;;;23.97;81.83;96860.31;601569;236;47851;-65
2022/07/24 08:44:05;;;;;;;;;;;;;;;23.98;82.07;96864.61;601522;236;68531;-65
2022/07/24 08:46:32;;;;;;;;;;;;;;;23.98;81.85;96861.92;601486;236;62993;-65
2022/07/24 08:49:00;;;;;;;;;;;;;;;23.98;81.93;96864.61;601523;236;66634;-65
2022/07/24 08:51:33;;;;;;;;;;;;;;;23.99;81.89;96865.40;601462;236;66248;-65
2022/07/24 08:54:02;;;;;;;;;;;;;;;23.99;81.79;96871.56;601519;236;62933;-64
2022/07/24 08:56:29;;;;;;;;;;;;;;;23.99;81.81;96865.40;600388;236;68711;-65
2022/07/24 08:58:57;;;;;;;;;;;;;;;23.99;81.69;96871.56;599758;236;69392;-65
2022/07/24 09:01:24;;;;;;;;;;;;;;;23.99;81.67;96866.19;599829;236;65012;-65
2022/07/24 09:03:52;;;;;;;;;;;;;;;23.99;81.62;96874.25;599752;236;68640;-65
2022/07/24 09:06:19;;;;;;;;;;;;;;;23.99;81.64;96871.56;599768;236;66600;-65
2022/07/24 09:09:00;;;;;;;;;;;;;;;23.99;81.71;96860.83;599764;236;62764;-65
2022/07/24 09:11:29;;;;;;;;;;;;;;;23.99;81.72;96860.03;599741;236;68623;-64
2022/07/24 09:16:46;;;;;;;;;;;;;;;24.00;81.64;96858.93;599792;236;65332;-64
2022/07/24 09:19:15;;;;;;;;;;;;;;;24.00;81.57;96865.09;599815;236;68637;-64
2022/07/24 09:21:44;;;;;;;;;;;;;;;23.99;81.54;96860.83;599785;236;68424;-64
2022/07/24 09:24:13;;;;;;;;;;;;;;;23.99;81.48;96858.14;599756;236;65058;-64
2022/07/24 09:26:45;;;;;;;;;;;;;;;24.00;81.58;96861.61;599769;236;68850;-64
2022/07/24 09:29:13;;;;;;;;;;;;;;;24.00;81.58;96848.19;599761;236;68432;-64
2022/07/24 09:31:54;;;;;;;;;;;;;;;24.00;81.57;96856.24;599802;236;62794;-64
2022/07/24 09:34:23;;;;;;;;;;;;;;;24.00;81.32;96857.03;599533;236;69634;-63
2022/07/24 09:37:01;;;;;;;;;;;;;;;24.00;81.34;96857.03;599735;236;66998;-63
2022/07/24 09:39:29;;;;;;;;;;;;;;;24.01;81.43;96855.14;599740;236;63831;-64
2022/07/24 09:41:57;;;;;;;;;;;;;;;24.00;81.22;96857.03;599769;236;69732;-64
2022/07/24 09:44:25;;;;;;;;;;;;;;;24.00;81.31;96851.67;599756;236;68835;-64
2022/07/24 09:46:56;;;;;;;;;;;;;;;24.01;81.34;96849.77;599811;236;65131;-64
2022/07/24 09:49:25;;;;;;;;;;;;;;;24.01;81.17;96847.91;599738;236;68804;-64
2022/07/24 09:52:10;;;;;;;;;;;;;;;24.00;81.15;96857.03;599701;236;68762;-64
2022/07/24 09:54:39;;;;;;;;;;;;;;;24.02;81.21;96851.39;599777;236;62758;-64
2022/07/24 09:57:18;;;;;;;;;;;;;;;24.01;81.23;96853.28;601279;236;68423;-73
2022/07/24 09:59:47;;;;;;;;;;;;;;;24.02;81.15;96857.55;601516;236;68572;-73
2022/07/24 10:02:15;;;;;;;;;;;;;;;24.03;81.19;96845.70;600965;235;64995;-73
2022/07/24 10:04:44;;;;;;;;;;;;;;;24.01;81.11;96847.09;601534;236;66602;-64
2022/07/24 10:07:13;;;;;;;;;;;;;;;24.01;81.16;96845.23;601533;236;68738;-63
2022/07/24 10:09:42;;;;;;;;;;;;;;;24.02;81.17;96849.50;601532;236;64885;-64
2022/07/24 10:12:17;;;;;;;;;;;;;;;24.02;81.06;96854.86;601496;236;66723;-64
2022/07/24 10:14:45;;;;;;;;;;;;;;;24.02;81.08;96846.81;601500;236;66463;-73
2022/07/24 10:17:14;;;;;;;;;;;;;;;24.02;81.03;96854.86;601577;236;65289;-73
2022/07/24 10:19:45;;;;;;;;;;;;;;;24.03;80.99;96851.08;601558;236;68466;-73
2022/07/24 10:22:14;;;;;;;;;;;;;;;24.03;80.96;96843.02;601537;236;68420;-73
2022/07/24 10:25:00;;;;;;;;;;;;;;;24.02;80.92;96849.50;601516;236;63879;-73
2022/07/24 10:27:35;;;;;;;;;;;;;;;24.02;80.98;96838.75;601523;236;68864;-74
2022/07/24 10:30:07;;;;;;;;;;;;;;;24.03;80.86;96839.55;601517;236;68475;-73
2022/07/24 10:32:35;;;;;;;;;;;;;;;24.04;80.80;96841.16;601324;235;65025;-73
2022/07/24 10:35:05;;;;;;;;;;;;;;;24.04;80.75;96841.16;601539;236;68746;-73
2022/07/24 10:37:34;;;;;;;;;;;;;;;24.04;80.68;96846.53;601507;236;69032;-73
2022/07/24 10:40:12;;;;;;;;;;;;;;;24.03;80.83;96837.66;599936;236;64956;-73
2022/07/24 10:42:54;;;;;;;;;;;;;;;24.03;80.77;96837.66;597440;236;68867;-73
2022/07/24 10:45:22;;;;;;;;;;;;;;;24.04;80.79;96831.21;593464;235;68472;-73
2022/07/24 10:47:51;;;;;;;;;;;;;;;24.04;80.71;96830.42;601581;236;65249;-73
2022/07/24 10:50:19;;;;;;;;;;;;;;;24.04;80.71;96825.84;601393;236;68893;-73
2022/07/24 10:52:47;;;;;;;;;;;;;;;24.04;80.78;96830.42;601507;236;68948;-64
2022/07/24 10:55:30;;;;;;;;;;;;;;;24.05;80.78;96822.05;601292;236;64890;-64
2022/07/24 10:57:59;;;;;;;;;;;;;;;24.05;80.76;96818.58;599539;236;69043;-64
2022/07/24 11:00:28;;;;;;;;;;;;;;;24.04;80.77;96817.79;599801;236;68421;-64
2022/07/24 11:02:57;;;;;;;;;;;;;;;24.05;80.77;96821.27;599805;236;70776;-64
2022/07/24 11:05:32;;;;;;;;;;;;;;;24.05;80.81;96813.22;599797;236;66469;-64
2022/07/24 11:08:17;;;;;;;;;;;;;;;24.05;80.68;96811.32;599779;236;66258;-63
2022/07/24 11:10:45;;;;;;;;;;;;;;;24.05;80.83;96814.00;599828;236;62844;-63
2022/07/24 11:13:31;;;;;;;;;;;;;;;24.06;80.86;96818.30;599760;236;65902;-63
2022/07/24 11:16:12;;;;;;;;;;;;;;;24.05;80.83;96816.69;599823;236;68408;-63
2022/07/24 11:18:59;;;;;;;;;;;;;;;24.05;80.95;96805.95;599841;236;63018;-64
2022/07/24 11:21:30;;;;;;;;;;;;;;;24.05;80.81;96816.69;599834;236;68753;-65
2022/07/24 11:24:21;;;;;;;;;;;;;;;24.05;80.82;96805.95;599813;236;68468;-65
2022/07/24 11:26:53;;;;;;;;;;;;;;;24.05;80.76;96811.32;599824;236;65505;-64
2022/07/24 11:29:26;;;;;;;;;;;;;;;24.05;80.73;96792.53;599763;236;66215;-64
2022/07/24 11:31:55;;;;;;;;;;;;;;;24.05;80.65;96797.90;599748;236;68544;-64
2022/07/24 11:34:23;;;;;;;;;;;;;;;24.06;80.57;96802.19;599741;236;62963;-64
2022/07/24 11:36:52;;;;;;;;;;;;;;;24.06;80.50;96807.56;599825;236;68793;-64
2022/07/24 11:39:20;;;;;;;;;;;;;;;24.06;80.49;96807.56;599793;236;68537;-64
2022/07/24 11:41:49;;;;;;;;;;;;;;;24.07;80.63;96797.62;599778;236;63017;-64
2022/07/24 11:44:18;;;;;;;;;;;;;;;24.06;80.50;96802.19;599716;236;68743;-64
2022/07/24 11:46:45;;;;;;;;;;;;;;;24.07;80.56;96809.14;599604;236;66459;-64
2022/07/24 11:49:13;;;;;;;;;;;;;;;24.07;80.49;96801.09;599830;236;62746;-64
2022/07/24 11:51:44;;;;;;;;;;;;;;;24.08;80.60;96796.52;599751;236;68646;-64
2022/07/24 11:54:13;;;;;;;;;;;;;;;24.07;80.63;96790.35;599746;236;66445;-64
2022/07/24 11:56:40;;;;;;;;;;;;;;;24.07;80.42;96790.35;599738;236;65543;-64
2022/07/24 11:59:24;;;;;;;;;;;;;;;24.07;80.41;96782.30;599759;236;66447;-64
2022/07/24 12:01:53;;;;;;;;;;;;;;;24.09;80.58;96790.86;599796;236;66202;-63
2022/07/24 12:04:21;;;;;;;;;;;;;;;24.07;80.50;96782.30;599812;236;62771;-63
2022/07/24 12:06:49;;;;;;;;;;;;;;;24.08;80.53;96788.45;599776;236;68805;-63
2022/07/24 12:09:16;;;;;;;;;;;;;;;24.07;80.39;96793.03;599725;236;69022;-73
2022/07/24 12:11:44;;;;;;;;;;;;;;;24.08;80.40;96791.93;599760;236;62681;-72
2022/07/24 12:14:18;;;;;;;;;;;;;;;24.08;80.40;96783.87;599793;236;68947;-73
2022/07/24 12:16:47;;;;;;;;;;;;;;;24.09;80.45;96771.25;599780;236;68630;-73
2022/07/24 12:19:17;;;;;;;;;;;;;;;24.09;80.40;96776.61;599607;236;63829;-73
2022/07/24 12:21:45;;;;;;;;;;;;;;;24.09;80.35;96787.36;599518;236;66503;-73
2022/07/24 12:24:13;;;;;;;;;;;;;;;24.08;80.38;96775.83;599771;236;68583;-73
2022/07/24 12:26:51;;;;;;;;;;;;;;;24.10;80.35;96770.17;599797;236;64896;-73
2022/07/24 12:29:19;;;;;;;;;;;;;;;24.10;80.29;96764.80;599812;236;68330;-73
2022/07/24 12:31:47;;;;;;;;;;;;;;;24.10;80.36;96776.33;599833;236;66155;-73
2022/07/24 12:34:14;;;;;;;;;;;;;;;24.10;80.39;96765.59;599731;236;65217;-73
2022/07/24 12:36:43;;;;;;;;;;;;;;;24.10;80.48;96765.59;599806;236;68662;-73
2022/07/24 12:39:12;;;;;;;;;;;;;;;24.10;80.33;96762.13;599769;236;66219;-73
2022/07/24 12:41:44;;;;;;;;;;;;;;;24.09;80.32;96761.33;599798;236;62791;-73
2022/07/24 12:44:11;;;;;;;;;;;;;;;24.10;80.46;96760.23;599843;236;68535;-73
2022/07/24 12:46:40;;;;;;;;;;;;;;;24.10;80.40;96754.86;599785;236;68351;-73
2022/07/24 12:49:15;;;;;;;;;;;;;;;24.09;80.44;96750.59;599765;236;65087;-73
2022/07/24 12:51:51;;;;;;;;;;;;;;;24.10;80.40;96749.48;599802;236;68360;-75
2022/07/24 12:54:26;;;;;;;;;;;;;;;24.11;80.33;96752.96;599768;236;68685;-72
2022/07/24 12:56:55;;;;;;;;;;;;;;;24.11;80.42;96743.02;599767;236;65036;-72
2022/07/24 12:59:30;;;;;;;;;;;;;;;24.11;80.34;96742.22;599464;236;68254;-73